createdAt,value
2022-08-02T00:00:55.650Z,100.00
2022-08-02T00:03:24.414Z,100.00
2022-08-02T00:05:53.827Z,100.00
2022-08-02T00:08:21.000Z,100.00
2022-08-02T00:10:47.848Z,100.00
2022-08-02T00:13:14.477Z,100.00
2022-08-02T00:15:41.192Z,100.00
2022-08-02T00:18:07.831Z,100.00
2022-08-02T00:20:34.463Z,100.00
2022-08-02T00:23:02.474Z,100.00
2022-08-02T00:25:29.133Z,100.00
2022-08-02T00:27:55.775Z,100.00
2022-08-02T00:30:22.452Z,100.00
2022-08-02T00:32:49.089Z,100.00
2022-08-02T00:35:15.753Z,100.00
2022-08-02T00:37:42.840Z,100.00
2022-08-02T00:40:11.982Z,100.00
2022-08-02T00:42:45.962Z,100.00
2022-08-02T00:45:12.617Z,100.00
2022-08-02T00:47:39.310Z,100.00
2022-08-02T00:50:06.515Z,100.00
2022-08-02T00:52:33.231Z,100.00
2022-08-02T00:54:59.878Z,100.00
2022-08-02T00:57:27.925Z,100.00
2022-08-02T00:59:54.861Z,100.00
2022-08-02T01:02:21.711Z,100.00
2022-08-02T01:04:48.522Z,100.00
2022-08-02T01:07:15.275Z,100.00
2022-08-02T01:09:42.230Z,100.00
2022-08-02T01:12:09.668Z,100.00
2022-08-02T01:14:38.851Z,100.00
2022-08-02T01:17:10.056Z,100.00
2022-08-02T01:19:43.577Z,100.00
2022-08-02T01:22:59.460Z,100.00
2022-08-02T01:25:33.735Z,100.00
2022-08-02T01:28:29.771Z,100.00
2022-08-02T01:31:01.184Z,100.00
2022-08-02T01:33:35.336Z,100.00
2022-08-02T01:36:04.900Z,100.00
2022-08-02T01:38:38.096Z,100.00
2022-08-02T01:41:07.816Z,100.00
2022-08-02T01:43:38.023Z,100.00
2022-08-02T01:46:05.894Z,100.00
2022-08-02T01:48:34.682Z,100.00
2022-08-02T01:51:02.738Z,100.00
2022-08-02T01:53:30.651Z,100.00
2022-08-02T01:55:59.351Z,100.00
2022-08-02T01:58:28.434Z,98.50
2022-08-02T02:00:59.567Z,99.55
2022-08-02T02:03:27.663Z,97.37
2022-08-02T02:05:57.041Z,97.24
2022-08-02T02:08:28.084Z,98.27
2022-08-02T02:10:56.924Z,99.08
2022-08-02T02:13:33.377Z,98.83
2022-08-02T02:16:04.803Z,98.91
2022-08-02T02:18:38.986Z,98.48
2022-08-02T02:21:05.775Z,96.81
2022-08-02T02:23:34.076Z,95.82
2022-08-02T02:26:05.250Z,96.51
2022-08-02T02:28:37.514Z,94.38
2022-08-02T02:31:07.912Z,96.45
2022-08-02T02:33:40.115Z,96.14
2022-08-02T02:36:09.239Z,95.94
2022-08-02T02:38:37.008Z,95.49
2022-08-02T02:41:05.999Z,96.19
2022-08-02T02:43:34.362Z,96.54
2022-08-02T02:46:05.423Z,95.07
2022-08-02T02:48:35.051Z,94.13
2022-08-02T02:51:04.141Z,93.27
2022-08-02T02:54:31.016Z,92.05
2022-08-02T02:56:19.702Z,90.05
2022-08-02T02:58:47.344Z,91.01
2022-08-02T03:01:15.281Z,91.54
2022-08-02T03:03:44.598Z,90.12
2022-08-02T03:06:15.766Z,88.95
2022-08-02T03:08:43.070Z,91.22
2022-08-02T03:11:11.086Z,89.65
2022-08-02T03:13:38.887Z,90.76
2022-08-02T03:16:06.624Z,90.40
2022-08-02T03:18:34.479Z,90.91
2022-08-02T03:21:04.220Z,91.05
2022-08-02T03:23:31.402Z,92.13
2022-08-02T03:25:58.222Z,91.88
2022-08-02T03:28:25.428Z,91.54
2022-08-02T03:30:52.334Z,92.63
2022-08-02T03:33:20.142Z,92.85
2022-08-02T03:35:49.858Z,93.76
2022-08-02T03:38:19.779Z,93.99
2022-08-02T03:40:47.189Z,93.87
2022-08-02T03:43:15.157Z,94.76
2022-08-02T03:45:43.829Z,95.01
2022-08-02T03:48:34.990Z,94.74
2022-08-02T03:50:58.773Z,95.06
2022-08-02T03:53:28.106Z,94.29
2022-08-02T03:55:55.905Z,94.11
2022-08-02T03:58:24.579Z,93.92
2022-08-02T04:00:52.595Z,93.22
2022-08-02T04:03:20.094Z,93.15
2022-08-02T04:06:03.761Z,93.24
2022-08-02T04:08:35.555Z,92.90
2022-08-02T04:11:04.289Z,93.75
2022-08-02T04:13:36.091Z,93.09
2022-08-02T04:16:08.337Z,92.29
2022-08-02T04:18:40.648Z,91.97
2022-08-02T04:21:10.303Z,93.67
2022-08-02T04:23:39.932Z,91.64
2022-08-02T04:26:08.638Z,90.88
2022-08-02T04:28:37.963Z,91.26
2022-08-02T04:31:05.827Z,92.33
2022-08-02T04:33:33.511Z,90.77
2022-08-02T04:36:00.774Z,91.76
2022-08-02T04:38:27.454Z,91.97
2022-08-02T04:40:56.027Z,90.55
2022-08-02T04:43:23.260Z,90.75
2022-08-02T04:45:52.085Z,89.23
2022-08-02T04:48:18.851Z,88.45
2022-08-02T04:50:45.545Z,87.18
2022-08-02T04:53:12.247Z,86.87
2022-08-02T04:55:39.004Z,86.11
2022-08-02T04:58:37.050Z,88.62
2022-08-02T05:00:53.951Z,87.03
2022-08-02T05:03:20.667Z,87.13
2022-08-02T05:05:47.345Z,87.39
2022-08-02T05:08:14.053Z,87.31
2022-08-02T05:10:40.846Z,87.48
2022-08-02T05:13:08.902Z,88.20
2022-08-02T05:15:35.590Z,87.34
2022-08-02T05:18:03.479Z,87.94
2022-08-02T05:20:30.186Z,89.33
2022-08-02T05:22:56.855Z,88.95
2022-08-02T05:25:23.628Z,89.51
2022-08-02T05:27:50.328Z,89.47
2022-08-02T05:30:18.399Z,89.44
2022-08-02T05:32:47.123Z,88.83
2022-08-02T05:35:14.074Z,89.78
2022-08-02T05:37:42.215Z,87.95
2022-08-02T05:40:12.855Z,88.08
2022-08-02T05:42:40.321Z,87.60
2022-08-02T05:45:07.779Z,88.16
2022-08-02T05:47:36.027Z,89.21
2022-08-02T05:50:03.898Z,89.06
2022-08-02T05:52:41.322Z,93.41
2022-08-02T05:55:16.252Z,90.47
2022-08-02T05:57:50.833Z,89.23
2022-08-02T06:00:18.267Z,91.37
2022-08-02T06:02:57.442Z,88.43
2022-08-02T06:05:26.291Z,87.62
2022-08-02T06:07:58.070Z,87.93
2022-08-02T06:10:28.119Z,87.76
2022-08-02T06:13:05.841Z,85.90
2022-08-02T06:15:33.635Z,87.40
2022-08-02T06:18:08.197Z,90.38
2022-08-02T06:20:35.943Z,93.56
2022-08-02T06:23:04.069Z,99.64
2022-08-02T06:25:50.595Z,100.00
2022-08-02T06:28:19.424Z,100.00
2022-08-02T06:30:46.173Z,100.00
2022-08-02T06:33:14.442Z,100.00
2022-08-02T06:35:45.297Z,100.00
2022-08-02T06:38:18.061Z,100.00
2022-08-02T06:40:48.805Z,100.00
2022-08-02T06:43:20.784Z,100.00
2022-08-02T06:45:47.479Z,100.00
2022-08-02T06:48:15.513Z,100.00
2022-08-02T06:50:42.362Z,100.00
2022-08-02T06:53:09.767Z,100.00
2022-08-02T06:55:44.062Z,100.00
2022-08-02T06:58:12.788Z,100.00
2022-08-02T07:00:43.056Z,100.00
2022-08-02T07:03:16.172Z,100.00
2022-08-02T07:05:43.145Z,100.00
2022-08-02T07:08:10.006Z,100.00
2022-08-02T07:10:38.713Z,100.00
2022-08-02T07:13:05.365Z,98.74
2022-08-02T07:15:32.047Z,99.12
2022-08-02T07:17:58.752Z,97.24
2022-08-02T07:20:27.870Z,97.99
2022-08-02T07:22:54.527Z,97.89
2022-08-02T07:25:21.318Z,97.91
2022-08-02T07:27:49.877Z,98.59
2022-08-02T07:30:16.558Z,98.17
2022-08-02T07:32:43.292Z,99.04
2022-08-02T07:35:09.923Z,99.13
2022-08-02T07:37:55.540Z,100.00
2022-08-02T07:40:25.471Z,100.00
2022-08-02T07:42:57.780Z,100.00
2022-08-02T07:45:36.107Z,100.00
2022-08-02T07:48:12.359Z,100.00
2022-08-02T07:50:45.034Z,100.00
2022-08-02T07:53:13.083Z,100.00
2022-08-02T07:55:40.925Z,100.00
2022-08-02T07:58:12.451Z,100.00
2022-08-02T08:00:40.236Z,100.00
2022-08-02T08:03:06.932Z,100.00
2022-08-02T08:05:33.630Z,100.00
2022-08-02T08:08:00.441Z,100.00
2022-08-02T08:10:28.703Z,100.00
2022-08-02T08:12:57.771Z,100.00
2022-08-02T08:15:24.462Z,100.00
2022-08-02T08:17:51.112Z,100.00
2022-08-02T08:20:17.803Z,100.00
2022-08-02T08:22:44.484Z,100.00
2022-08-02T08:25:11.202Z,99.99
2022-08-02T08:27:47.902Z,98.10
2022-08-02T08:30:14.767Z,100.00
2022-08-02T08:32:42.513Z,99.56
2022-08-02T08:35:09.408Z,98.76
2022-08-02T08:37:36.151Z,98.68
2022-08-02T08:40:04.596Z,98.40
2022-08-02T08:42:32.266Z,97.91
2022-08-02T08:45:00.502Z,98.21
2022-08-02T08:47:34.372Z,98.13
2022-08-02T08:50:04.616Z,97.14
2022-08-02T08:52:36.332Z,97.42
2022-08-02T08:55:04.572Z,96.90
2022-08-02T08:57:34.810Z,96.39
2022-08-02T09:00:06.090Z,95.84
2022-08-02T09:02:33.869Z,96.80
2022-08-02T09:05:00.820Z,95.83
2022-08-02T09:07:27.576Z,93.59
2022-08-02T09:09:54.276Z,93.22
2022-08-02T09:12:21.697Z,94.75
2022-08-02T09:14:50.235Z,91.73
2022-08-02T09:17:18.826Z,89.38
2022-08-02T09:20:06.985Z,89.51
2022-08-02T09:22:35.755Z,88.56
2022-08-02T09:25:03.670Z,88.60
2022-08-02T09:27:35.992Z,87.58
2022-08-02T09:30:12.310Z,88.20
2022-08-02T09:32:48.488Z,87.68
2022-08-02T09:36:07.022Z,86.48
2022-08-02T09:38:18.019Z,85.34
2022-08-02T09:40:44.653Z,87.65
2022-08-02T09:43:11.339Z,88.05
2022-08-02T09:45:38.158Z,85.00
2022-08-02T09:48:08.792Z,86.25
2022-08-02T09:50:37.236Z,84.47
2022-08-02T09:53:10.907Z,86.75
2022-08-02T09:55:37.629Z,81.57
2022-08-02T09:58:17.730Z,83.23
2022-08-02T10:00:53.550Z,84.97
2022-08-02T10:03:22.939Z,84.29
2022-08-02T10:05:56.233Z,84.69
2022-08-02T10:08:29.291Z,85.31
2022-08-02T10:10:59.657Z,85.40
2022-08-02T10:13:28.608Z,86.41
2022-08-02T10:15:55.954Z,84.78
2022-08-02T10:18:38.331Z,85.42
2022-08-02T10:21:10.234Z,87.03
2022-08-02T10:23:39.780Z,85.78
2022-08-02T10:26:07.636Z,86.51
2022-08-02T10:28:34.408Z,85.22
2022-08-02T10:31:04.884Z,85.48
2022-08-02T10:33:36.192Z,86.57
2022-08-02T10:36:07.650Z,86.57
2022-08-02T10:38:35.365Z,86.63
2022-08-02T10:41:02.173Z,86.60
2022-08-02T10:43:47.611Z,84.74
2022-08-02T10:46:21.976Z,83.64
2022-08-02T10:49:38.130Z,81.73
2022-08-02T10:52:07.544Z,79.79
2022-08-02T10:54:37.222Z,80.15
2022-08-02T10:57:15.491Z,80.39
2022-08-02T10:59:42.390Z,80.66
2022-08-02T11:02:09.074Z,80.46
2022-08-02T11:05:05.888Z,81.10
2022-08-02T11:07:35.688Z,80.18
2022-08-02T11:10:30.826Z,79.41
2022-08-02T11:13:06.966Z,80.33
2022-08-02T11:15:59.869Z,81.60
2022-08-02T11:18:59.844Z,82.30
2022-08-02T11:21:29.209Z,80.85
2022-08-02T11:23:56.993Z,81.96
2022-08-02T11:26:43.637Z,81.26
2022-08-02T11:29:16.054Z,80.64
2022-08-02T11:31:44.474Z,79.93
2022-08-02T11:34:37.078Z,81.79
2022-08-02T11:37:01.202Z,77.95
2022-08-02T11:39:27.987Z,76.30
2022-08-02T11:41:55.881Z,75.71
2022-08-02T11:44:25.584Z,73.00
2022-08-02T11:46:57.439Z,78.02
2022-08-02T11:49:24.485Z,78.57
2022-08-02T11:51:56.074Z,75.66
2022-08-02T11:54:25.849Z,75.31
2022-08-02T11:56:52.819Z,74.77
2022-08-02T11:59:20.542Z,74.32
2022-08-02T12:01:47.284Z,74.61
2022-08-02T12:04:18.281Z,72.75
2022-08-02T12:06:53.237Z,71.95
2022-08-02T12:09:19.988Z,71.49
2022-08-02T12:11:50.075Z,70.90
2022-08-02T12:14:17.330Z,70.61
2022-08-02T12:16:44.033Z,69.02
2022-08-02T12:19:14.438Z,68.96
2022-08-02T12:21:42.415Z,69.56
2022-08-02T12:24:09.355Z,69.01
2022-08-02T12:26:42.524Z,68.93
2022-08-02T12:29:12.329Z,68.74
2022-08-02T12:31:57.024Z,69.21
2022-08-02T12:34:30.060Z,68.57
2022-08-02T12:37:01.104Z,67.49
2022-08-02T12:39:37.724Z,67.58
2022-08-02T12:42:05.429Z,66.32
2022-08-02T12:44:36.638Z,67.04
2022-08-02T12:47:06.007Z,66.59
2022-08-02T12:49:33.331Z,67.35
2022-08-02T12:52:04.894Z,67.11
2022-08-02T12:54:39.859Z,67.11
2022-08-02T12:57:12.511Z,66.86
2022-08-02T12:59:53.251Z,65.47
2022-08-02T13:02:22.167Z,66.25
2022-08-02T13:04:50.261Z,66.08
2022-08-02T13:07:17.763Z,67.17
2022-08-02T13:09:44.448Z,66.62
2022-08-02T13:12:13.389Z,64.08
2022-08-02T13:14:47.380Z,66.05
2022-08-02T13:17:25.558Z,62.79
2022-08-02T13:19:53.296Z,61.44
2022-08-02T13:22:21.077Z,61.93
2022-08-02T13:24:55.623Z,58.50
2022-08-02T13:27:25.500Z,53.68
2022-08-02T13:29:53.071Z,56.61
2022-08-02T13:32:20.279Z,56.47
2022-08-02T13:34:48.584Z,55.10
2022-08-02T13:37:15.375Z,55.88
2022-08-02T13:39:55.387Z,53.74
2022-08-02T13:42:29.935Z,53.94
2022-08-02T13:44:56.578Z,54.32
2022-08-02T13:47:26.763Z,54.14
2022-08-02T13:50:06.409Z,53.62
2022-08-02T13:52:33.283Z,53.10
2022-08-02T13:55:00.009Z,52.86
2022-08-02T13:57:26.681Z,52.13
2022-08-02T14:00:01.440Z,51.23
2022-08-02T14:02:28.520Z,52.12
2022-08-02T14:04:55.408Z,50.83
2022-08-02T14:07:23.457Z,50.88
2022-08-02T14:09:50.244Z,50.47
2022-08-02T14:12:17.253Z,51.06
2022-08-02T14:14:44.100Z,53.26
2022-08-02T14:17:10.866Z,51.73
2022-08-02T14:19:38.177Z,51.73
2022-08-02T14:22:10.523Z,51.51
2022-08-02T14:24:40.241Z,51.83
2022-08-02T14:27:07.191Z,51.10
2022-08-02T14:29:33.865Z,52.63
2022-08-02T14:32:01.086Z,51.77
2022-08-02T14:34:28.227Z,52.55
2022-08-02T14:36:55.236Z,52.20
2022-08-02T14:39:22.253Z,51.62
2022-08-02T14:41:59.168Z,51.38
2022-08-02T14:44:27.459Z,52.04
2022-08-02T14:46:54.179Z,52.29
2022-08-02T14:49:25.060Z,51.38
2022-08-02T14:51:53.809Z,51.34
2022-08-02T14:54:20.565Z,52.66
2022-08-02T14:56:56.739Z,50.55
2022-08-02T14:59:23.543Z,49.79
2022-08-02T15:01:50.236Z,48.93
2022-08-02T15:04:16.956Z,48.16
2022-08-02T15:06:43.771Z,47.93
2022-08-02T15:09:10.440Z,48.18
2022-08-02T15:11:47.116Z,47.48
2022-08-02T15:14:21.906Z,48.00
2022-08-02T15:16:58.067Z,47.48
2022-08-02T15:19:38.537Z,47.68
2022-08-02T15:22:15.775Z,48.54
2022-08-02T15:24:43.910Z,48.55
2022-08-02T15:27:10.535Z,49.91
2022-08-02T15:29:38.641Z,49.40
2022-08-02T15:32:06.052Z,49.31
2022-08-02T15:34:32.663Z,49.52
2022-08-02T15:36:59.343Z,49.46
2022-08-02T15:39:25.997Z,48.20
2022-08-02T15:41:52.821Z,48.80
2022-08-02T15:44:19.508Z,48.44
2022-08-02T15:46:47.627Z,47.94
2022-08-02T15:49:14.483Z,49.00
2022-08-02T15:51:41.199Z,48.70
2022-08-02T15:54:07.828Z,49.39
2022-08-02T15:56:34.561Z,50.75
2022-08-02T15:59:01.301Z,51.01
2022-08-02T16:01:38.457Z,51.02
2022-08-02T16:04:07.684Z,64.95
2022-08-02T16:06:34.494Z,100.00
2022-08-02T16:09:01.478Z,100.00
2022-08-02T16:11:28.237Z,100.00
2022-08-02T16:13:55.183Z,100.00
2022-08-02T16:16:22.511Z,100.00
2022-08-02T16:18:49.243Z,100.00
2022-08-02T16:22:16.147Z,100.00
2022-08-02T16:25:42.079Z,100.00
2022-08-02T16:28:08.838Z,100.00
2022-08-02T16:30:35.889Z,100.00
2022-08-02T16:33:02.964Z,100.00
2022-08-02T16:35:29.591Z,100.00
2022-08-02T16:37:57.697Z,100.00
2022-08-02T16:40:24.506Z,100.00
2022-08-02T16:42:51.308Z,100.00
2022-08-02T16:45:20.251Z,100.00
2022-08-02T16:47:55.991Z,100.00
2022-08-02T16:50:28.081Z,100.00
2022-08-02T16:53:17.422Z,100.00
2022-08-02T16:55:59.450Z,100.00
2022-08-02T16:58:26.122Z,100.00
2022-08-02T17:00:53.689Z,100.00
2022-08-02T17:03:20.435Z,100.00
2022-08-02T17:05:56.425Z,100.00
2022-08-02T17:08:32.148Z,100.00
2022-08-02T17:11:03.366Z,100.00
2022-08-02T17:13:31.129Z,100.00
2022-08-02T17:16:20.830Z,100.00
2022-08-02T17:18:49.325Z,100.00
2022-08-02T17:21:18.390Z,100.00
2022-08-02T17:24:05.868Z,100.00
2022-08-02T17:26:33.665Z,100.00
2022-08-02T17:29:17.720Z,100.00
2022-08-02T17:32:04.686Z,100.00
2022-08-02T17:34:32.823Z,100.00
2022-08-02T17:37:00.449Z,100.00
2022-08-02T17:39:33.483Z,100.00
2022-08-02T17:42:01.251Z,100.00
2022-08-02T17:44:37.464Z,100.00
2022-08-02T17:47:07.113Z,100.00
2022-08-02T17:49:35.353Z,100.00
2022-08-02T17:52:48.695Z,100.00
2022-08-02T17:54:53.312Z,100.00
2022-08-02T17:57:20.069Z,100.00
2022-08-02T18:00:03.857Z,100.00
2022-08-02T18:02:31.311Z,100.00
2022-08-02T18:04:57.974Z,100.00
2022-08-02T18:07:25.057Z,100.00
2022-08-02T18:09:53.612Z,100.00
2022-08-02T18:12:20.283Z,100.00
2022-08-02T18:14:49.057Z,100.00
2022-08-02T18:17:17.086Z,100.00
2022-08-02T18:19:57.300Z,100.00
2022-08-02T18:22:26.518Z,100.00
2022-08-02T18:24:54.901Z,100.00
2022-08-02T18:27:21.928Z,100.00
2022-08-02T18:29:48.604Z,100.00
2022-08-02T18:33:53.720Z,100.00
2022-08-02T18:35:15.061Z,100.00
2022-08-02T18:37:43.731Z,100.00
2022-08-02T18:40:15.757Z,100.00
2022-08-02T18:42:42.431Z,100.00
2022-08-02T18:45:19.435Z,100.00
2022-08-02T18:47:50.809Z,100.00
2022-08-02T18:50:17.995Z,100.00
2022-08-02T18:52:44.735Z,100.00
2022-08-02T18:55:17.364Z,100.00
2022-08-02T18:58:17.805Z,100.00
2022-08-02T19:00:51.708Z,100.00
2022-08-02T19:03:18.894Z,100.00
2022-08-02T19:05:52.147Z,100.00
2022-08-02T19:08:20.803Z,100.00
2022-08-02T19:11:08.863Z,100.00
2022-08-02T19:13:40.751Z,100.00
2022-08-02T19:16:09.316Z,100.00
2022-08-02T19:18:36.314Z,100.00
2022-08-02T19:21:05.531Z,100.00
2022-08-02T19:23:34.133Z,100.00
2022-08-02T19:26:01.045Z,100.00
2022-08-02T19:28:29.112Z,100.00
2022-08-02T19:30:56.472Z,100.00
2022-08-02T19:33:54.389Z,100.00
2022-08-02T19:36:11.863Z,100.00
2022-08-02T19:38:43.745Z,100.00
2022-08-02T19:41:10.907Z,100.00
2022-08-02T19:44:24.289Z,100.00
2022-08-02T19:46:25.856Z,100.00
2022-08-02T19:48:53.027Z,100.00
2022-08-02T19:51:49.693Z,100.00
2022-08-02T19:54:10.877Z,100.00
2022-08-02T19:56:39.117Z,100.00
2022-08-02T19:59:12.719Z,100.00
2022-08-02T20:01:44.806Z,100.00
2022-08-02T20:04:23.240Z,100.00
2022-08-02T20:06:50.613Z,100.00
2022-08-02T20:09:21.134Z,100.00
2022-08-02T20:11:54.578Z,100.00
2022-08-02T20:14:26.931Z,100.00
2022-08-02T20:16:55.170Z,100.00
2022-08-02T20:19:23.519Z,100.00
2022-08-02T20:21:56.664Z,100.00
2022-08-02T20:24:26.694Z,100.00
2022-08-02T20:26:55.202Z,100.00
2022-08-02T20:29:45.162Z,100.00
2022-08-02T20:32:14.882Z,100.00
2022-08-02T20:34:41.735Z,100.00
2022-08-02T20:38:00.892Z,100.00
2022-08-02T20:39:55.049Z,100.00
2022-08-02T20:42:23.062Z,100.00
2022-08-02T20:44:53.498Z,100.00
2022-08-02T20:47:27.642Z,100.00
2022-08-02T20:49:55.317Z,100.00
2022-08-02T20:52:24.527Z,100.00
2022-08-02T20:54:51.643Z,100.00
2022-08-02T20:57:18.332Z,100.00
2022-08-02T20:59:45.033Z,100.00
2022-08-02T21:02:20.409Z,100.00
2022-08-02T21:04:47.727Z,100.00
2022-08-02T21:07:17.991Z,100.00
2022-08-02T21:09:53.468Z,100.00
2022-08-02T21:12:22.048Z,100.00
2022-08-02T21:14:56.962Z,100.00
2022-08-02T21:17:33.172Z,100.00
2022-08-02T21:20:09.786Z,100.00
2022-08-02T21:22:37.451Z,100.00
2022-08-02T21:25:09.028Z,100.00
2022-08-02T21:27:53.122Z,100.00
2022-08-02T21:30:21.482Z,100.00
2022-08-02T21:32:52.510Z,100.00
2022-08-02T21:35:19.366Z,100.00
2022-08-02T21:37:47.873Z,100.00
2022-08-02T21:40:15.088Z,100.00
2022-08-02T21:42:41.860Z,100.00
2022-08-02T21:45:17.530Z,100.00
2022-08-02T21:47:46.726Z,100.00
2022-08-02T21:50:18.317Z,100.00
2022-08-02T21:52:52.290Z,100.00
2022-08-02T21:55:21.288Z,100.00
2022-08-02T21:57:50.916Z,100.00
2022-08-02T22:00:17.879Z,100.00
2022-08-02T22:02:55.436Z,100.00
2022-08-02T22:05:23.804Z,100.00
2022-08-02T22:07:50.664Z,100.00
2022-08-02T22:10:17.567Z,100.00
2022-08-02T22:12:44.912Z,100.00
2022-08-02T22:15:11.844Z,100.00
2022-08-02T22:17:51.574Z,100.00
2022-08-02T22:20:20.752Z,100.00
2022-08-02T22:22:50.533Z,100.00
2022-08-02T22:25:31.349Z,100.00
2022-08-02T22:28:38.855Z,100.00
2022-08-02T22:30:52.850Z,100.00
2022-08-02T22:33:20.127Z,100.00
2022-08-02T22:35:47.030Z,100.00
2022-08-02T22:38:18.587Z,100.00
2022-08-02T22:40:46.330Z,100.00
2022-08-02T22:43:15.919Z,100.00
2022-08-02T22:45:50.004Z,100.00
2022-08-02T22:48:16.701Z,100.00
2022-08-02T22:50:43.394Z,100.00
2022-08-02T22:53:10.122Z,100.00
2022-08-02T22:55:41.358Z,100.00
2022-08-02T22:58:24.770Z,100.00
2022-08-02T23:00:52.525Z,100.00
2022-08-02T23:03:19.200Z,100.00
2022-08-02T23:05:45.871Z,100.00
2022-08-02T23:08:12.551Z,100.00
2022-08-02T23:10:40.617Z,100.00
2022-08-02T23:13:07.280Z,100.00
2022-08-02T23:15:34.279Z,100.00
2022-08-02T23:18:01.556Z,100.00
2022-08-02T23:20:28.222Z,100.00
2022-08-02T23:22:54.999Z,100.00
2022-08-02T23:25:22.718Z,100.00
2022-08-02T23:27:51.296Z,100.00
2022-08-02T23:30:18.407Z,100.00
2022-08-02T23:32:46.746Z,100.00
2022-08-02T23:35:16.949Z,100.00
2022-08-02T23:38:00.222Z,100.00
2022-08-02T23:40:39.234Z,100.00
2022-08-02T23:43:13.624Z,100.00
2022-08-02T23:45:41.743Z,100.00
2022-08-02T23:48:08.432Z,100.00
2022-08-02T23:50:35.114Z,100.00
2022-08-02T23:53:01.737Z,100.00
2022-08-02T23:55:28.531Z,100.00
2022-08-02T23:57:55.194Z,100.00
